Portada
METAR-TAF:

METAR-TAF

Aeroports :

Mackay, Austràlia

latitud: 21-10-18S, longitud: 149-10-47E, altitud: 6 m

Observació

L'informe es va fer fa 32 minuts, a les 10:00 UTC
Vent 11 kt del Sud-Est
Temperatura 27°C
Humitat 84%
Pressió 1008 hPa
Visibilitat 10 km o més
Núvols disperses a una alçada de 7000 ft

METAR: YBMK 181000Z AUTO 13011KT 9999 // SCT070 27/24 Q1008

Hora: 20:32 (10:32 UTC)


TAF: manca

Observacions i pronòstics meteorològics de més de 4000 aeroports (METAR i TAF).

Les estacions disponibles són els punts grocs i vermells al mapa.

Posi el ratolí al punt desitjat per veure el nom de l'estació.

Feu clic per veure les observacions i els pronòstics meteorològics.

Per canviar el mapa: feu clic els botons verds amb una creu de color negre per apropar; al botó verd amb un guió per allunyar la imatge; o en les fletxes verdes per a mapes adjacents.


METAR-TAF: